Flight Track Log - Related Links

Times and Time Zones

All times are in EDT time to prevent confusion due to time zone crossing. See the TAM3442 flight status page for this flight to view local times or setup timezone preferences in your user account.

Time Position Orientation Groundspeed Altitude Reporting Facility
EDT Latitude Longitude Course Direction KTS MPH feet Rate Location/Type
Thu 10:07:43 PM -23.4210 -46.4340 75° East 175 201 3,300  Level FlightAware ADS-B
Thu 10:08:08 PM -23.4150 -46.4160 70° East 189 217 3,900 2,100 Climbing FlightAware ADS-B
Thu 10:08:23 PM -23.4110 -46.3990 76° East 177 204 4,700 2,700 Climbing FlightAware ADS-B
Thu 10:08:48 PM -23.4040 -46.3780 70° East 168 193 5,700 1,867 Climbing FlightAware ADS-B
Thu 10:09:08 PM -23.3920 -46.3650 45° Northeast 186 214 6,100 933 Climbing FlightAware ADS-B
Thu 10:09:33 PM -23.3710 -46.3510 31° Northeast 224 258 6,400 873 Climbing FlightAware ADS-B
Thu 10:10:03 PM -23.3410 -46.3330 29° Northeast 262 302 6,900 1,333 Climbing FlightAware ADS-B
Thu 10:10:18 PM -23.3240 -46.3220 31° Northeast 282 325 7,400 2,250 Climbing FlightAware ADS-B
Thu 10:10:43 PM -23.2950 -46.3040 30° Northeast 286 329 8,400 2,760 Climbing FlightAware ADS-B
Thu 10:11:08 PM -23.2650 -46.2840 31° Northeast 284 327 9,700 2,677 Climbing FlightAware ADS-B
Thu 10:11:48 PM -23.2180 -46.2530 31° Northeast 304 350 11,300 2,267 Climbing FlightAware ADS-B
Thu 10:12:38 PM -23.1560 -46.2120 31° Northeast 324 373 13,100 2,000 Climbing FlightAware ADS-B
Thu 10:13:18 PM -23.1040 -46.1790 30° Northeast 338 389 14,300 1,425 Climbing FlightAware ADS-B
Thu 10:13:58 PM -23.0450 -46.1390 32° Northeast 383 441 15,000 2,047 Climbing FlightAware ADS-B
Thu 10:14:43 PM -22.9830 -46.0940 34° Northeast 365 420 17,200 2,824 Climbing FlightAware ADS-B
Thu 10:15:23 PM -22.9210 -46.0520 32° Northeast 361 415 19,000 2,123 Climbing FlightAware ADS-B
Thu 10:16:53 PM -22.7920 -45.9650 31° Northeast 365 420 21,800 1,309 Climbing FlightAware ADS-B
Thu 10:17:00 PM -22.8198 -45.9862 31° Northeast  Level Estimated
Thu 10:18:08 PM -22.6770 -45.8870 32° Northeast 422 486 22,600  Level FlightAware ADS-B
Thu 10:19:08 PM -22.5820 -45.8220 32° Northeast 434 499 24,000 971 Climbing FlightAware ADS-B
Thu 10:19:53 PM -22.5040 -45.7700 32° Northeast 459 528 24,300 505 Climbing FlightAware ADS-B
Thu 10:20:43 PM -22.4160 -45.7110 32° Northeast 467 537 24,800 733 Climbing FlightAware ADS-B
Thu 10:21:23 PM -22.3420 -45.6600 33° Northeast 488 562 25,400 975 Climbing FlightAware ADS-B
Thu 10:22:03 PM -22.2620 -45.6060 32° Northeast 498 573 26,100 1,533 Climbing FlightAware ADS-B
Thu 10:22:53 PM -22.1650 -45.5420 31° Northeast 487 560 27,700 1,733 Climbing FlightAware ADS-B
Thu 10:23:33 PM -22.0920 -45.5000 28° Northeast 475 547 28,700 1,800 Climbing FlightAware ADS-B
Thu 10:24:13 PM -22.0010 -45.4490 27° Northeast 463 533 30,100 1,624 Climbing FlightAware ADS-B
Thu 10:24:58 PM -21.9010 -45.3900 29° Northeast 467 537 31,000 635 Climbing FlightAware ADS-B
Thu 10:25:38 PM -21.8310 -45.3500 28° Northeast 459 528 31,000  Level FlightAware ADS-B
Thu 10:26:23 PM -21.7480 -45.3020 28° Northeast 469 540 31,000  Level FlightAware ADS-B
Thu 10:27:03 PM -21.6640 -45.2530 28° Northeast 475 547 31,000  Level FlightAware ADS-B
Thu 10:27:43 PM -21.5920 -45.2120 28° Northeast 473 544 31,000  Level FlightAware ADS-B
Thu 10:28:28 PM -21.5020 -45.1600 28° Northeast 476 548 31,000  Level FlightAware ADS-B
Thu 10:29:08 PM -21.4220 -45.1140 28° Northeast 479 551 31,000  Level FlightAware ADS-B
Thu 10:29:53 PM -21.3360 -45.0650 28° Northeast 480 552 31,000 -141 Level FlightAware ADS-B
Thu 10:30:33 PM -21.2530 -45.0170 28° Northeast 481 554 30,800 -884 Descending FlightAware ADS-B
Thu 10:31:28 PM -21.1740 -44.9720 28° Northeast 478 550 29,600 -1,768 Descending FlightAware ADS-B
Thu 10:32:08 PM -21.0830 -44.9190 29° Northeast 475 547 28,000 -2,084 Descending FlightAware ADS-B
Thu 10:33:03 PM -20.9810 -44.8610 28° Northeast 463 533 26,300 -1,832 Descending FlightAware ADS-B
Thu 10:33:43 PM -20.9120 -44.8210 28° Northeast 455 524 25,100 -2,000 Descending FlightAware ADS-B
Thu 10:34:33 PM -20.7990 -44.7570 28° Northeast 446 513 23,300 -1,933 Descending FlightAware ADS-B
Thu 10:35:13 PM -20.7240 -44.7140 28° Northeast 444 511 22,200 -1,650 Descending FlightAware ADS-B
Thu 10:35:53 PM -20.6580 -44.6770 28° Northeast 446 513 21,100 -1,694 Descending FlightAware ADS-B
Thu 10:36:38 PM -20.5690 -44.6260 28° Northeast 441 507 19,800 -1,694 Descending FlightAware ADS-B
Thu 10:37:18 PM -20.4970 -44.5850 28° Northeast 436 502 18,700 -1,553 Descending FlightAware ADS-B
Thu 10:38:03 PM -20.4220 -44.5430 28° Northeast 418 481 17,600 -1,482 Descending FlightAware ADS-B
Thu 10:38:43 PM -20.3520 -44.5030 28° Northeast 408 470 16,600 -1,725 Descending FlightAware ADS-B
Thu 10:39:23 PM -20.2870 -44.4680 27° Northeast 394 453 15,300 -2,471 Descending FlightAware ADS-B
Thu 10:40:08 PM -20.2110 -44.4360 22° Northeast 394 453 13,100 -2,541 Descending FlightAware ADS-B
Thu 10:40:48 PM -20.1430 -44.4080 21° North 382 440 11,700 -1,575 Descending FlightAware ADS-B
Thu 10:41:28 PM -20.0830 -44.3780 25° Northeast 349 402 11,000 -918 Descending FlightAware ADS-B
Thu 10:42:13 PM -20.0160 -44.3450 25° Northeast 329 379 10,400 -800 Descending FlightAware ADS-B
Thu 10:42:58 PM -19.9580 -44.3170 24° Northeast 307 353 9,800 -686 Descending FlightAware ADS-B
Thu 10:43:23 PM -19.9240 -44.3000 25° Northeast 300 345 9,600 -360 Descending FlightAware ADS-B
Thu 10:43:48 PM -19.8920 -44.2850 24° Northeast 299 344 9,500 -436 Descending FlightAware ADS-B
Thu 10:44:18 PM -19.8550 -44.2670 25° Northeast 299 344 9,200 -500 Descending FlightAware ADS-B
Thu 10:44:48 PM -19.8150 -44.2480 24° Northeast 299 344 9,000 -764 Descending FlightAware ADS-B
Thu 10:45:13 PM -19.7890 -44.2350 25° Northeast 300 345 8,500 -1,309 Descending FlightAware ADS-B
Thu 10:45:43 PM -19.7460 -44.2150 24° Northeast 295 339 7,800 -1,500 Descending FlightAware ADS-B
Thu 10:46:13 PM -19.7090 -44.1960 26° Northeast 292 336 7,000 -1,527 Descending FlightAware ADS-B
Thu 10:46:38 PM -19.6780 -44.1820 23° Northeast 289 333 6,400 -1,418 Descending FlightAware ADS-B
Thu 10:47:08 PM -19.6410 -44.1640 25° Northeast 282 325 5,700 -1,200 Descending FlightAware ADS-B
Thu 10:47:33 PM -19.6130 -44.1500 25° Northeast 272 313 5,300 -764 Descending FlightAware ADS-B
Thu 10:48:03 PM -19.5810 -44.1350 24° Northeast 251 289 5,000 -667 Descending FlightAware ADS-B
Thu 10:48:18 PM -19.5660 -44.1270 27° Northeast 243 280 4,800 -600 Descending FlightAware ADS-B
Thu 10:48:43 PM -19.5390 -44.1150 23° Northeast 227 261 4,600 -600 Descending FlightAware ADS-B
Thu 10:48:58 PM -19.5270 -44.1050 38° Northeast 218 251 4,400 -400 Descending FlightAware ADS-B
Thu 10:49:13 PM -19.5230 -44.0910 73° East 205 236 4,400  Level FlightAware ADS-B
Thu 10:49:43 PM -19.5320 -44.0650 110° East 179 206 4,400  Level FlightAware ADS-B
Thu 10:49:53 PM -19.5380 -44.0580 132° Southeast 167 192 4,400  Level FlightAware ADS-B
Thu 10:50:23 PM -19.5540 -44.0430 139° Southeast 151 174 4,400 -400 Level FlightAware ADS-B
Thu 10:50:53 PM -19.5690 -44.0290 139° Southeast 140 161 4,000 -764 Descending FlightAware ADS-B
Thu 10:51:18 PM -19.5810 -44.0180 139° Southeast 138 159 3,700 -764 Descending FlightAware ADS-B
Thu 10:51:48 PM -19.5960 -44.0040 139° Southeast 140 161 3,300 -764 Descending FlightAware ADS-B
Thu 10:52:13 PM -19.6080 -43.9930 139° Southeast 140 161 3,000 -655 Descending FlightAware ADS-B
Thu 10:52:43 PM -19.6220 -43.9790 137° Southeast 140 161 2,700 -533 Descending FlightAware ADS-B
Thu 10:52:58 PM -19.6290 -43.9730 141° Southeast 133 153 2,600 -400 Descending FlightAware ADS-B

Login

Don't have an account? Register now (free) for customized features, flight alerts, and more!